Aviation Digital Data Service (ADDS)

Output produced by METARs form (1727 UTC 19 December 2014)
found at http://www.aviationweather.gov/adds/metars/
 
METAR text: KSBP 191656Z 08003KT 10SM BKN200 12/10 A3023 RMK AO2 SLP236 T01170100
Conditions at: KSBP (SAN LUIS OBISPO , CA, US) observed 1656 UTC 19 December 2014
Temperature: 11.7°C (53°F)
Dewpoint: 10.0°C (50°F) [RH = 89%]
Pressure (altimeter): 30.23 inches Hg (1023.8 mb)
[Sea-level pressure: 1023.6 mb]
Winds: from the E (80 degrees) at 3 MPH (3 knots; 1.6 m/s)
Visibility: 10 or more miles (16+ km)
Ceiling: 20000 feet AGL
Clouds: broken clouds at 20000 feet AGL
Weather: no significant weather observed at this time

METAR text: KSBP 191556Z 00000KT 10SM BKN200 09/08 A3021 RMK AO2 SLP230 T00940083
Conditions at: KSBP (SAN LUIS OBISPO , CA, US) observed 1556 UTC 19 December 2014
Temperature: 9.4°C (49°F)
Dewpoint: 8.3°C (47°F) [RH = 93%]
Pressure (altimeter): 30.21 inches Hg (1023.1 mb)
[Sea-level pressure: 1023.0 mb]
Winds: calm
Visibility: 10 or more miles (16+ km)
Ceiling: 20000 feet AGL
Clouds: broken clouds at 20000 feet AGL
Weather: no significant weather observed at this time

METAR text: KSBP 191456Z 06007KT 10SM FEW035 BKN200 09/08 A3022 RMK AO2 SLP233 T00890083 53001
Conditions at: KSBP (SAN LUIS OBISPO , CA, US) observed 1456 UTC 19 December 2014
Temperature: 8.9°C (48°F)
Dewpoint: 8.3°C (47°F) [RH = 96%]
Pressure (altimeter): 30.22 inches Hg (1023.5 mb)
[Sea-level pressure: 1023.3 mb]
Winds: from the ENE (60 degrees) at 8 MPH (7 knots; 3.6 m/s)
Visibility: 10 or more miles (16+ km)
Ceiling: 20000 feet AGL
Clouds: few clouds at 3500 feet AGL
broken clouds at 20000 feet AGL
Weather: no significant weather observed at this time

METAR text: KSBP 191356Z 20003KT 10SM SCT035 09/08 A3020 RMK AO2 SLP228 T00940083
Conditions at: KSBP (SAN LUIS OBISPO , CA, US) observed 1356 UTC 19 December 2014
Temperature: 9.4°C (49°F)
Dewpoint: 8.3°C (47°F) [RH = 93%]
Pressure (altimeter): 30.20 inches Hg (1022.8 mb)
[Sea-level pressure: 1022.8 mb]
Winds: from the SSW (200 degrees) at 3 MPH (3 knots; 1.6 m/s)
Visibility: 10 or more miles (16+ km)
Ceiling: at least 12,000 feet AGL
Clouds: scattered clouds at 3500 feet AGL
Weather: no significant weather observed at this time

METAR text: KSBP 191256Z AUTO 00000KT 10SM CLR 10/09 A3020 RMK AO2 SLP227 T01000094
Conditions at: KSBP (SAN LUIS OBISPO , CA, US) observed 1256 UTC 19 December 2014
Temperature: 10.0°C (50°F)
Dewpoint: 9.4°C (49°F) [RH = 96%]
Pressure (altimeter): 30.20 inches Hg (1022.8 mb)
[Sea-level pressure: 1022.7 mb]
Winds: calm
Visibility: 10 or more miles (16+ km)
Ceiling: at least 12,000 feet AGL
Clouds: sky clear below 12,000 feet AGL
Weather: automated observation with no human augmentation;
there may or may not be significant weather present at this time

METAR text: KSBP 191156Z AUTO 00000KT 10SM OVC036 12/10 A3021 RMK AO2 SLP231 T01170100 10117 20100 50006
Conditions at: KSBP (SAN LUIS OBISPO , CA, US) observed 1156 UTC 19 December 2014
Temperature: 11.7°C (53°F)
Dewpoint: 10.0°C (50°F) [RH = 89%]
Pressure (altimeter): 30.21 inches Hg (1023.1 mb)
[Sea-level pressure: 1023.1 mb]
Winds: calm
Visibility: 10 or more miles (16+ km)
Ceiling: 3600 feet AGL
Clouds: overcast cloud deck at 3600 feet AGL
Weather: automated observation with no human augmentation;
there may or may not be significant weather present at this time

METAR text: KSBP 191056Z AUTO 15003KT 10SM FEW030 OVC036 12/10 A3023 RMK AO2 SLP236 T01170100
Conditions at: KSBP (SAN LUIS OBISPO , CA, US) observed 1056 UTC 19 December 2014
Temperature: 11.7°C (53°F)
Dewpoint: 10.0°C (50°F) [RH = 89%]
Pressure (altimeter): 30.23 inches Hg (1023.8 mb)
[Sea-level pressure: 1023.6 mb]
Winds: from the SSE (150 degrees) at 3 MPH (3 knots; 1.6 m/s)
Visibility: 10 or more miles (16+ km)
Ceiling: 3600 feet AGL
Clouds: few clouds at 3000 feet AGL
overcast cloud deck at 3600 feet AGL
Weather: automated observation with no human augmentation;
there may or may not be significant weather present at this time

METAR text: KSBP 191017Z AUTO 00000KT 10SM OVC033 12/11 A3023 RMK AO2 T01170106
Conditions at: KSBP (SAN LUIS OBISPO , CA, US) observed 1017 UTC 19 December 2014
Temperature: 11.7°C (53°F)
Dewpoint: 10.6°C (51°F) [RH = 93%]
Pressure (altimeter): 30.23 inches Hg (1023.8 mb)
Winds: calm
Visibility: 10 or more miles (16+ km)
Ceiling: 3300 feet AGL
Clouds: overcast cloud deck at 3300 feet AGL
Weather: automated observation with no human augmentation;
there may or may not be significant weather present at this time

METAR text: KSBP 190956Z AUTO 33004KT 10SM OVC029 11/11 A3022 RMK AO2 SLP232 T01110106
Conditions at: KSBP (SAN LUIS OBISPO , CA, US) observed 0956 UTC 19 December 2014
Temperature: 11.1°C (52°F)
Dewpoint: 10.6°C (51°F) [RH = 97%]
Pressure (altimeter): 30.22 inches Hg (1023.5 mb)
[Sea-level pressure: 1023.2 mb]
Winds: from the NNW (330 degrees) at 5 MPH (4 knots; 2.1 m/s)
Visibility: 10 or more miles (16+ km)
Ceiling: 2900 feet AGL
Clouds: overcast cloud deck at 2900 feet AGL
Weather: automated observation with no human augmentation;
there may or may not be significant weather present at this time